Time;durP1;ratioP1;P1;durP2;ratioP2;P2;SDS_P1;SDS_P2;PMS_P1;PMS_P2;Temp;Humidity;BMP_temperature;BMP_pressure;BME280_temperature;BME280_humidity;BME280_pressure;Samples;Min_cycle;Max_cycle;Signal;HPM_P1;HPM_P2
2023/01/31 00:01:47;;;;;;;13.80;4.07;;;;;;;4.08;100.00;100835.91;5003655;28;20487;-81
2023/01/31 00:04:15;;;;;;;16.63;3.43;;;;;;;4.10;100.00;100834.06;5005551;28;20463;-82
2023/01/31 00:06:43;;;;;;;18.17;3.70;;;;;;;4.11;100.00;100822.53;5002039;28;20492;-82
2023/01/31 00:09:11;;;;;;;19.80;5.10;;;;;;;4.24;100.00;100826.22;5009117;28;20471;-82
2023/01/31 00:11:38;;;;;;;14.07;3.30;;;;;;;4.32;100.00;100823.13;5011171;28;20483;-82
2023/01/31 00:14:06;;;;;;;16.90;4.80;;;;;;;4.35;100.00;100825.59;5012345;28;20543;-82
2023/01/31 00:16:33;;;;;;;16.90;4.30;;;;;;;4.28;100.00;100829.53;5005825;28;20495;-81
2023/01/31 00:18:59;;;;;;;24.10;4.33;;;;;;;4.38;100.00;100838.66;5005074;28;20984;-81
2023/01/31 00:21:28;;;;;;;17.17;4.53;;;;;;;4.24;100.00;100825.34;5005460;28;20483;-81
2023/01/31 00:23:56;;;;;;;24.37;5.37;;;;;;;4.27;100.00;100831.34;5005730;28;20965;-81
2023/01/31 00:26:24;;;;;;;14.33;3.60;;;;;;;4.19;100.00;100830.91;5005201;28;20486;-81
2023/01/31 00:28:53;;;;;;;21.40;4.33;;;;;;;4.33;100.00;100836.25;5005748;28;21060;-81
2023/01/31 00:31:20;;;;;;;27.57;4.03;;;;;;;4.42;100.00;100840.19;5001595;28;20514;-81
2023/01/31 00:33:48;;;;;;;15.83;3.90;;;;;;;4.30;100.00;100827.66;5011761;28;20479;-81
2023/01/31 00:36:16;;;;;;;12.07;3.17;;;;;;;4.33;100.00;100828.31;5007541;28;20515;-80
2023/01/31 00:38:45;;;;;;;25.37;5.93;;;;;;;4.21;100.00;100820.22;5010177;28;20466;-81
2023/01/31 00:41:11;;;;;;;23.27;4.20;;;;;;;4.14;100.00;100822.34;5007246;28;20958;-81
2023/01/31 00:43:38;;;;;;;21.53;3.50;;;;;;;4.04;100.00;100827.28;5010909;28;20490;-80
2023/01/31 00:46:06;;;;;;;20.70;5.20;;;;;;;4.08;100.00;100823.56;5011786;28;20486;-80
2023/01/31 00:48:33;;;;;;;13.70;3.30;;;;;;;3.99;100.00;100839.91;5013433;28;20466;-80
2023/01/31 00:51:00;;;;;;;24.87;4.83;;;;;;;3.99;100.00;100839.91;5025136;28;20506;-80
2023/01/31 00:53:26;;;;;;;13.67;3.40;;;;;;;4.02;100.00;100842.41;5025161;28;20491;-80
2023/01/31 00:55:57;;;;;;;11.00;3.60;;;;;;;3.87;100.00;100836.19;5011678;28;21050;-80
2023/01/31 00:58:24;;;;;;;21.60;5.40;;;;;;;3.87;100.00;100828.25;5010333;28;20901;-80
2023/01/31 01:00:51;;;;;;;24.80;3.40;;;;;;;3.99;100.00;100828.50;5018100;28;20502;-81
2023/01/31 01:03:18;;;;;;;19.43;4.20;;;;;;;3.98;100.00;100832.94;5014631;28;20468;-80
2023/01/31 01:05:44;;;;;;;20.60;5.33;;;;;;;4.04;100.00;100840.53;5009638;28;20488;-80
2023/01/31 01:08:11;;;;;;;15.10;3.33;;;;;;;3.96;100.00;100840.13;5007918;28;20495;-81
2023/01/31 01:10:38;;;;;;;19.70;4.03;;;;;;;3.99;100.00;100828.50;5004809;28;20479;-83
2023/01/31 01:13:06;;;;;;;17.23;4.60;;;;;;;3.95;100.00;100835.75;5005366;28;20477;-82
2023/01/31 01:15:33;;;;;;;11.63;3.60;;;;;;;3.87;100.00;100841.47;5008765;28;20837;-81
2023/01/31 01:17:59;;;;;;;15.60;4.73;;;;;;;3.93;100.00;100849.06;5013226;28;20464;-81
2023/01/31 01:20:26;;;;;;;17.53;3.80;;;;;;;3.88;100.00;100855.53;5004419;28;20494;-81
2023/01/31 01:22:53;;;;;;;19.90;4.70;;;;;;;3.88;100.00;100855.53;5011260;28;20468;-82
2023/01/31 01:25:19;;;;;;;12.73;2.83;;;;;;;3.89;100.00;100851.94;5012897;28;20471;-82
2023/01/31 01:27:46;;;;;;;16.97;4.00;;;;;;;3.86;100.00;100852.97;5004686;28;20441;-81
2023/01/31 01:30:14;;;;;;;17.53;4.23;;;;;;;3.96;100.00;100843.59;5004636;28;21250;-81
2023/01/31 01:32:41;;;;;;;14.03;2.90;;;;;;;3.89;100.00;100847.53;5011240;28;20478;-82
2023/01/31 01:35:08;;;;;;;20.50;3.83;;;;;;;3.99;100.00;100844.38;5009755;28;20490;-82
2023/01/31 01:37:35;;;;;;;15.23;3.27;;;;;;;4.06;100.00;100849.25;5015105;28;20464;-82
2023/01/31 01:40:02;;;;;;;18.87;4.53;;;;;;;4.00;100.00;100860.16;5019449;28;20456;-82
2023/01/31 01:42:34;;;;;;;20.10;3.97;;;;;;;3.95;100.00;100848.97;5015048;28;20480;-81
2023/01/31 01:45:01;;;;;;;17.77;4.10;;;;;;;3.89;100.00;100852.81;4996959;28;20456;-82
2023/01/31 01:47:38;;;;;;;14.80;3.80;;;;;;;4.02;100.00;100860.94;5003277;28;20514;-81
2023/01/31 01:50:10;;;;;;;25.20;4.13;;;;;;;4.04;100.00;100860.84;5004230;28;20514;-81
2023/01/31 01:52:39;;;;;;;18.63;4.23;;;;;;;4.06;100.00;100862.50;5003536;28;20507;-81
2023/01/31 01:55:12;;;;;;;13.80;3.70;;;;;;;3.91;100.00;100856.22;5004398;28;20524;-81
2023/01/31 01:57:41;;;;;;;21.00;3.70;;;;;;;3.99;100.00;100863.72;5003183;28;20456;-81
2023/01/31 02:00:10;;;;;;;19.70;5.67;;;;;;;3.98;100.00;100869.13;5003054;28;20492;-81
2023/01/31 02:02:38;;;;;;;17.00;5.10;;;;;;;4.04;100.00;100869.63;5003379;28;20452;-81
2023/01/31 02:05:07;;;;;;;26.47;4.00;;;;;;;3.97;100.00;100876.19;5004025;28;20485;-80
2023/01/31 02:07:33;;;;;;;21.17;3.70;;;;;;;4.01;100.00;100871.59;5003685;28;21092;-81
2023/01/31 02:10:04;;;;;;;24.47;3.67;;;;;;;4.07;100.00;100873.91;5003743;28;20456;-81
2023/01/31 02:12:31;;;;;;;11.20;4.23;;;;;;;4.09;100.00;100872.88;5002575;28;20991;-82
2023/01/31 02:14:57;;;;;;;14.43;3.73;;;;;;;4.02;100.00;100866.22;5003802;28;20994;-81
2023/01/31 02:17:25;;;;;;;14.30;3.00;;;;;;;4.12;100.00;100885.09;5004770;28;20480;-81
2023/01/31 02:20:02;;;;;;;16.80;3.80;;;;;;;3.91;100.00;100890.63;5016600;28;20493;-81
2023/01/31 02:22:32;;;;;;;18.43;4.50;;;;;;;3.99;100.00;100892.00;5004466;28;20854;-81
2023/01/31 02:25:25;;;;;;;22.07;3.40;;;;;;;3.95;100.00;100886.84;5001427;28;20505;-81
2023/01/31 02:28:24;;;;;;;20.03;3.17;;;;;;;3.73;100.00;100888.94;5011101;28;20469;-81
2023/01/31 02:31:10;;;;;;;12.87;3.20;;;;;;;3.46;100.00;100892.09;5004029;28;20577;-81
2023/01/31 02:33:43;;;;;;;8.17;3.33;;;;;;;3.50;100.00;100891.00;5000059;28;20468;-81
2023/01/31 02:36:17;;;;;;;17.73;3.10;;;;;;;3.44;100.00;100890.44;5006722;28;20503;-81
2023/01/31 02:39:05;;;;;;;18.03;4.03;;;;;;;3.27;100.00;100892.19;5012048;28;20470;-80
2023/01/31 02:41:36;;;;;;;15.97;3.20;;;;;;;3.30;100.00;100899.09;5008077;28;20507;-81
2023/01/31 02:46:59;;;;;;;16.43;4.33;;;;;;;3.17;100.00;100897.06;5020264;28;20487;-81
2023/01/31 02:49:34;;;;;;;18.43;3.60;;;;;;;3.09;100.00;100907.19;5013947;28;20479;-81
2023/01/31 02:52:21;;;;;;;19.70;3.50;;;;;;;3.04;100.00;100897.75;5007518;28;20918;-81
2023/01/31 02:57:47;;;;;;;23.93;3.70;;;;;;;2.96;100.00;100901.63;5010977;28;20466;-81
2023/01/31 03:00:14;;;;;;;17.57;3.23;;;;;;;2.91;100.00;100901.00;4988683;28;20517;-81
2023/01/31 03:02:40;;;;;;;29.60;4.33;;;;;;;2.88;100.00;100901.16;4983595;28;20495;-81
2023/01/31 03:05:14;;;;;;;24.83;4.17;;;;;;;2.89;100.00;100891.47;4992121;28;20455;-81
2023/01/31 03:07:42;;;;;;;15.70;3.73;;;;;;;2.82;100.00;100901.47;5003204;28;20502;-81
2023/01/31 03:10:29;;;;;;;15.93;4.23;;;;;;;2.83;100.00;100896.13;4992025;28;20489;-81
2023/01/31 03:13:06;;;;;;;16.37;4.47;;;;;;;2.78;100.00;100895.50;4981193;28;20484;-81
2023/01/31 03:18:30;;;;;;;14.93;3.37;;;;;;;2.92;100.00;100886.03;4957980;28;20457;-81
2023/01/31 03:21:03;;;;;;;14.87;4.07;;;;;;;2.75;100.00;100876.31;4982827;28;20504;-81
2023/01/31 03:23:33;;;;;;;17.23;4.10;;;;;;;2.70;100.00;100873.03;4983500;28;20524;-81
2023/01/31 03:26:00;;;;;;;15.03;5.00;;;;;;;2.77;100.00;100871.78;4982998;28;20484;-81
2023/01/31 03:28:29;;;;;;;17.50;4.40;;;;;;;2.68;100.00;100862.53;4983195;28;20468;-81
2023/01/31 03:31:00;;;;;;;24.07;4.63;;;;;;;2.75;100.00;100871.03;4982198;28;20476;-81
2023/01/31 03:33:29;;;;;;;15.40;4.63;;;;;;;2.74;100.00;100856.09;4982416;28;20456;-80
2023/01/31 03:36:01;;;;;;;21.30;4.10;;;;;;;2.66;100.00;100852.97;4964918;28;20480;-80
2023/01/31 03:38:30;;;;;;;15.23;6.33;;;;;;;2.76;100.00;100856.88;4971134;28;20504;-81
2023/01/31 03:41:01;;;;;;;24.53;5.17;;;;;;;2.59;100.00;100848.00;4981461;28;20508;-81
2023/01/31 03:43:33;;;;;;;26.40;5.90;;;;;;;2.59;100.00;100850.66;4983309;28;20496;-81
2023/01/31 03:46:03;;;;;;;30.40;7.13;;;;;;;2.54;100.00;100847.38;4982821;28;20528;-80
2023/01/31 03:48:35;;;;;;;17.40;4.60;;;;;;;2.51;100.00;100842.22;4971203;28;20488;-81
2023/01/31 03:51:06;;;;;;;22.07;4.60;;;;;;;2.50;100.00;100840.53;4984198;28;21001;-80
2023/01/31 03:53:35;;;;;;;24.80;5.20;;;;;;;2.47;100.00;100837.19;4987605;28;20484;-81
2023/01/31 03:56:05;;;;;;;13.80;4.43;;;;;;;2.38;100.00;100836.72;4986835;28;20480;-81
2023/01/31 03:58:34;;;;;;;28.57;5.70;;;;;;;2.26;100.00;100832.88;4992252;28;20525;-80
2023/01/31 04:01:05;;;;;;;15.03;4.13;;;;;;;2.31;100.00;100834.41;5005874;28;20482;-81
2023/01/31 04:03:35;;;;;;;15.23;5.47;;;;;;;2.32;100.00;100834.34;5006371;28;20517;-81
2023/01/31 04:06:03;;;;;;;22.50;4.97;;;;;;;2.42;100.00;100834.78;5005769;28;20482;-81
2023/01/31 04:08:31;;;;;;;18.50;5.30;;;;;;;2.52;100.00;100827.25;5006345;28;20502;-81
2023/01/31 04:10:58;;;;;;;14.10;6.83;;;;;;;2.68;100.00;100817.66;5006074;28;20836;-80
2023/01/31 04:13:25;;;;;;;27.53;6.70;;;;;;;2.66;100.00;100826.56;5006438;28;20451;-81
2023/01/31 04:15:52;;;;;;;16.33;6.23;;;;;;;2.70;100.00;100813.16;5005061;28;20519;-81
2023/01/31 04:18:18;;;;;;;16.97;5.10;;;;;;;2.61;100.00;100806.53;5005765;28;20472;-80
2023/01/31 04:20:45;;;;;;;11.07;4.40;;;;;;;2.82;100.00;100817.81;5005022;28;20503;-80
2023/01/31 04:23:13;;;;;;;30.20;5.47;;;;;;;2.88;100.00;100810.50;5006029;28;20464;-80
2023/01/31 04:25:39;;;;;;;14.70;6.37;;;;;;;2.79;100.00;100809.19;5005861;28;20552;-81
2023/01/31 04:28:06;;;;;;;20.90;6.83;;;;;;;2.85;100.00;100823.88;5006212;28;20928;-80
2023/01/31 04:30:33;;;;;;;22.37;5.43;;;;;;;2.75;100.00;100823.50;5005766;28;20502;-80
2023/01/31 04:32:59;;;;;;;18.63;5.47;;;;;;;2.79;100.00;100828.53;5005843;28;20482;-81
2023/01/31 04:35:26;;;;;;;20.60;4.93;;;;;;;2.77;100.00;100819.81;5005638;28;20479;-81
2023/01/31 04:37:52;;;;;;;12.13;4.70;;;;;;;2.79;100.00;100822.41;5006162;28;20467;-81
2023/01/31 04:40:20;;;;;;;17.37;4.90;;;;;;;2.76;100.00;100822.53;5005130;28;20488;-81
2023/01/31 04:42:47;;;;;;;19.83;6.63;;;;;;;2.83;100.00;100816.06;5005057;28;20471;-81
2023/01/31 04:45:14;;;;;;;26.33;5.40;;;;;;;2.79;100.00;100811.84;4997656;28;20452;-80
2023/01/31 04:47:41;;;;;;;16.80;5.93;;;;;;;2.90;100.00;100828.00;5003840;28;20547;-80
2023/01/31 04:50:08;;;;;;;24.73;6.20;;;;;;;2.93;100.00;100822.56;5004893;28;20468;-80
2023/01/31 04:52:35;;;;;;;21.33;4.97;;;;;;;2.96;100.00;100822.41;5005421;28;20490;-80
2023/01/31 04:55:02;;;;;;;25.63;5.60;;;;;;;3.11;100.00;100825.22;5005621;28;20495;-81
2023/01/31 04:57:30;;;;;;;21.40;5.20;;;;;;;2.97;100.00;100816.19;5003909;28;20499;-80
2023/01/31 04:59:57;;;;;;;18.43;4.87;;;;;;;3.09;100.00;100819.13;4990917;28;21058;-80
2023/01/31 05:02:23;;;;;;;9.53;5.23;;;;;;;3.07;100.00;100819.19;5003292;28;20488;-81
2023/01/31 05:04:50;;;;;;;18.63;4.90;;;;;;;3.03;100.00;100808.91;5004021;28;20492;-81
2023/01/31 05:07:16;;;;;;;17.93;5.23;;;;;;;3.00;100.00;100805.47;5003874;28;20480;-81
2023/01/31 05:09:44;;;;;;;16.03;4.77;;;;;;;3.10;100.00;100803.19;5005269;28;20449;-82
2023/01/31 05:12:10;;;;;;;22.60;6.60;;;;;;;3.14;100.00;100807.41;5002864;28;20488;-82
2023/01/31 05:14:38;;;;;;;12.73;5.23;;;;;;;3.23;100.00;100808.72;4992763;28;20517;-82
2023/01/31 05:17:05;;;;;;;16.77;5.80;;;;;;;3.23;100.00;100792.00;4983176;28;20912;-81
2023/01/31 05:19:32;;;;;;;18.23;5.20;;;;;;;3.26;100.00;100790.03;5001774;28;20476;-81
2023/01/31 05:21:58;;;;;;;24.27;4.37;;;;;;;3.23;100.00;100776.16;5003782;28;20468;-81
2023/01/31 05:24:26;;;;;;;19.67;5.13;;;;;;;3.46;100.00;100767.00;5002699;28;20899;-81
2023/01/31 05:26:57;;;;;;;31.93;5.17;;;;;;;3.40;100.00;100762.88;4996607;28;20508;-81
2023/01/31 05:29:25;;;;;;;22.70;6.13;;;;;;;3.50;100.00;100761.47;5000003;28;20525;-81
2023/01/31 05:31:53;;;;;;;20.23;5.00;;;;;;;3.47;100.00;100766.94;5003042;28;20570;-82
2023/01/31 05:34:20;;;;;;;25.50;4.57;;;;;;;3.52;100.00;100759.59;5002579;28;20460;-84
2023/01/31 05:36:47;;;;;;;16.90;4.50;;;;;;;3.51;100.00;100764.97;4993435;28;21012;-83
2023/01/31 05:39:13;;;;;;;29.07;6.67;;;;;;;3.49;100.00;100753.59;4997697;28;20455;-85
2023/01/31 05:41:40;;;;;;;18.83;5.27;;;;;;;3.63;100.00;100758.16;5002616;28;20511;-84
2023/01/31 05:44:07;;;;;;;17.97;5.57;;;;;;;3.66;100.00;100761.47;4998024;28;20556;-83
2023/01/31 05:46:33;;;;;;;19.63;4.60;;;;;;;3.76;100.00;100744.16;4983791;28;20496;-83
2023/01/31 05:49:01;;;;;;;14.10;4.60;;;;;;;3.73;100.00;100748.78;4997678;28;20543;-84
2023/01/31 05:51:28;;;;;;;22.43;5.43;;;;;;;3.82;100.00;100753.56;5003145;28;21016;-84
2023/01/31 05:53:55;;;;;;;13.47;5.40;;;;;;;3.84;100.00;100754.34;5002092;28;20487;-84
2023/01/31 05:56:22;;;;;;;17.47;6.80;;;;;;;3.86;100.00;100749.81;5003066;28;20484;-83
2023/01/31 05:58:49;;;;;;;16.90;4.83;;;;;;;3.84;100.00;100751.69;5002231;28;20502;-82
2023/01/31 06:01:17;;;;;;;14.83;6.30;;;;;;;3.89;100.00;100738.19;4996499;28;20836;-80
2023/01/31 06:03:44;;;;;;;17.33;5.30;;;;;;;4.00;100.00;100746.41;4983605;28;20463;-80
2023/01/31 06:06:12;;;;;;;14.60;5.60;;;;;;;4.05;100.00;100749.63;4982614;28;20496;-81
2023/01/31 06:08:39;;;;;;;17.50;6.17;;;;;;;4.04;100.00;100747.06;4983204;28;20549;-81
2023/01/31 06:11:05;;;;;;;27.37;6.23;;;;;;;4.10;100.00;100742.28;4982601;28;20508;-82
2023/01/31 06:13:32;;;;;;;16.53;5.07;;;;;;;4.02;100.00;100739.22;4983708;28;20461;-83
2023/01/31 06:15:59;;;;;;;19.00;5.93;;;;;;;4.02;100.00;100733.94;4982614;28;20860;-82
2023/01/31 06:18:26;;;;;;;16.23;5.20;;;;;;;4.16;100.00;100741.09;4982247;28;20472;-83
2023/01/31 06:20:52;;;;;;;25.20;6.67;;;;;;;4.08;100.00;100736.25;4979355;28;20545;-83
2023/01/31 06:23:20;;;;;;;11.57;5.10;;;;;;;4.09;100.00;100730.00;4989060;28;20495;-83
2023/01/31 06:25:49;;;;;;;13.60;5.83;;;;;;;3.96;100.00;100731.66;5002760;28;20492;-83
2023/01/31 06:28:15;;;;;;;15.77;6.30;;;;;;;4.01;100.00;100728.72;4989040;28;20549;-83
2023/01/31 06:30:42;;;;;;;17.83;5.60;;;;;;;4.04;100.00;100725.91;4982588;28;20843;-83
2023/01/31 06:33:09;;;;;;;15.20;6.17;;;;;;;4.05;100.00;100719.69;4983346;28;20858;-82
2023/01/31 06:35:35;;;;;;;18.17;6.70;;;;;;;4.05;100.00;100723.19;4982875;28;21008;-81
2023/01/31 06:38:04;;;;;;;16.20;6.27;;;;;;;4.08;100.00;100716.84;4982952;28;20480;-81
2023/01/31 06:40:34;;;;;;;25.63;6.47;;;;;;;4.08;100.00;100719.50;4982513;28;20526;-82
2023/01/31 06:43:01;;;;;;;17.47;7.10;;;;;;;4.08;100.00;100730.06;4983939;28;20429;-83
2023/01/31 06:45:28;;;;;;;22.43;6.43;;;;;;;4.12;100.00;100716.59;4981970;28;20554;-82
2023/01/31 06:47:54;;;;;;;19.43;5.73;;;;;;;4.28;100.00;100732.44;4982593;28;21022;-84
2023/01/31 06:50:21;;;;;;;25.63;7.57;;;;;;;4.20;100.00;100713.53;4983192;28;20993;-83
2023/01/31 06:52:48;;;;;;;22.83;7.20;;;;;;;4.19;100.00;100718.91;4983089;28;20440;-84
2023/01/31 06:55:15;;;;;;;22.90;7.80;;;;;;;4.17;100.00;100719.00;4982704;28;20952;-83
2023/01/31 06:57:47;;;;;;;16.77;6.57;;;;;;;4.10;100.00;100715.84;4983144;28;20438;-84
2023/01/31 07:00:15;;;;;;;20.33;6.97;;;;;;;4.15;100.00;100713.78;5000744;28;20523;-83
2023/01/31 07:02:42;;;;;;;19.57;7.10;;;;;;;4.19;100.00;100714.47;5002226;28;20494;-83
2023/01/31 07:05:09;;;;;;;19.07;7.00;;;;;;;4.42;100.00;100715.75;5001023;28;20748;-86
2023/01/31 07:07:35;;;;;;;19.07;7.33;;;;;;;4.28;100.00;100713.91;5005605;28;20522;-85
2023/01/31 07:10:02;;;;;;;16.53;7.43;;;;;;;4.30;100.00;100714.66;5002424;28;20479;-85
2023/01/31 07:12:29;;;;;;;26.20;8.90;;;;;;;4.27;100.00;100706.06;5004966;28;20480;-85
2023/01/31 07:14:57;;;;;;;11.80;7.10;;;;;;;4.28;100.00;100707.78;5001846;28;20488;-84
2023/01/31 07:17:23;;;;;;;22.33;7.97;;;;;;;4.29;100.00;100702.41;5001066;28;20653;-86
2023/01/31 07:19:52;;;;;;;19.23;7.53;;;;;;;4.15;100.00;100707.66;5002398;28;20945;-85
2023/01/31 07:22:19;;;;;;;25.40;8.77;;;;;;;4.42;100.00;100702.53;5001334;28;20996;-86
2023/01/31 07:24:47;;;;;;;24.47;8.60;;;;;;;4.47;100.00;100703.09;5002450;28;20815;-84
2023/01/31 07:27:14;;;;;;;19.80;8.20;;;;;;;4.42;100.00;100699.03;5001505;28;20531;-84
2023/01/31 07:29:42;;;;;;;23.00;7.60;;;;;;;4.42;100.00;100689.28;5001305;28;20547;-84
2023/01/31 07:32:10;;;;;;;15.50;8.40;;;;;;;4.34;100.00;100680.97;5001995;28;20737;-85
2023/01/31 07:34:37;;;;;;;19.10;8.67;;;;;;;4.36;100.00;100673.78;5002694;28;20824;-86
2023/01/31 07:37:04;;;;;;;21.63;8.30;;;;;;;4.38;100.00;100687.78;5002029;28;20506;-85
2023/01/31 07:39:30;;;;;;;21.37;7.97;;;;;;;4.43;100.00;100684.88;5002762;28;20432;-86
2023/01/31 07:41:57;;;;;;;19.30;8.83;;;;;;;4.41;100.00;100681.44;5002803;28;20538;-86
2023/01/31 07:44:24;;;;;;;23.43;9.07;;;;;;;4.37;100.00;100682.56;5002290;28;20455;-87
2023/01/31 07:46:53;;;;;;;24.53;8.60;;;;;;;4.37;100.00;100674.63;5002645;28;20488;-86
2023/01/31 07:49:21;;;;;;;21.50;8.20;;;;;;;4.24;100.00;100663.91;5002875;28;20526;-87
2023/01/31 07:51:48;;;;;;;28.00;9.07;;;;;;;4.24;100.00;100654.16;5001964;28;20476;-86
2023/01/31 07:54:15;;;;;;;21.97;8.17;;;;;;;4.31;100.00;100655.50;5002421;28;20452;-86
2023/01/31 07:56:41;;;;;;;22.90;9.57;;;;;;;4.34;100.00;100651.84;5001256;28;20507;-85
2023/01/31 07:59:08;;;;;;;27.87;9.67;;;;;;;4.42;100.00;100657.50;5001286;28;20483;-84
2023/01/31 08:04:19;;;;;;;18.53;8.53;;;;;;;4.48;100.00;100654.53;5002543;28;20668;-86
2023/01/31 08:06:52;;;;;;;21.27;9.70;;;;;;;4.41;100.00;100647.88;5000942;28;20479;-87
2023/01/31 08:09:18;;;;;;;23.70;11.27;;;;;;;4.57;100.00;100637.22;5003186;28;20531;-86
2023/01/31 08:11:45;;;;;;;16.40;9.20;;;;;;;4.43;100.00;100638.06;5002293;28;20484;-86
2023/01/31 08:14:14;;;;;;;21.17;10.67;;;;;;;4.61;100.00;100630.78;5001890;28;20467;-86
2023/01/31 08:16:40;;;;;;;20.53;9.40;;;;;;;4.62;100.00;100636.97;5002023;28;20483;-86
2023/01/31 08:19:07;;;;;;;27.93;10.37;;;;;;;4.74;100.00;100644.16;5002582;28;20460;-85
2023/01/31 08:21:34;;;;;;;23.93;9.83;;;;;;;4.60;100.00;100634.41;5002107;28;20483;-86
2023/01/31 08:24:02;;;;;;;22.97;11.00;;;;;;;4.56;100.00;100627.56;5003385;28;20534;-86
2023/01/31 08:26:28;;;;;;;29.03;10.40;;;;;;;4.56;100.00;100618.78;5003075;28;20487;-87
2023/01/31 08:28:56;;;;;;;38.13;11.53;;;;;;;4.82;100.00;100623.31;5002232;28;20483;-87
2023/01/31 08:31:24;;;;;;;23.77;10.77;;;;;;;4.99;100.00;100619.63;5002405;28;20471;-85
2023/01/31 08:33:52;;;;;;;21.90;9.23;;;;;;;4.92;100.00;100614.81;5002991;28;20483;-86
2023/01/31 08:36:20;;;;;;;34.77;10.63;;;;;;;4.95;100.00;100615.50;5005514;28;20515;-84
2023/01/31 08:38:47;;;;;;;21.93;9.80;;;;;;;4.95;100.00;100596.06;5006721;28;20444;-86
2023/01/31 08:41:16;;;;;;;24.77;9.40;;;;;;;4.86;100.00;100593.06;5006446;28;20475;-85
2023/01/31 08:43:43;;;;;;;17.70;8.60;;;;;;;4.89;100.00;100598.16;5007133;28;20443;-86
2023/01/31 08:46:10;;;;;;;23.47;9.00;;;;;;;4.69;100.00;100604.69;5006663;28;20491;-86
2023/01/31 08:48:42;;;;;;;22.53;9.77;;;;;;;4.63;100.00;100591.81;5006724;28;20495;-86
2023/01/31 08:51:10;;;;;;;31.70;8.70;;;;;;;4.60;100.00;100605.28;5005699;28;20475;-86
2023/01/31 08:53:38;;;;;;;18.53;9.00;;;;;;;4.73;100.00;100584.16;5006322;28;20428;-87
2023/01/31 08:56:06;;;;;;;19.90;8.73;;;;;;;4.55;100.00;100570.28;5006472;28;20543;-87
2023/01/31 08:58:37;;;;;;;16.63;8.23;;;;;;;4.60;100.00;100585.84;5005440;28;20518;-86
2023/01/31 09:01:04;;;;;;;20.23;9.97;;;;;;;4.75;100.00;100581.44;5004912;28;20486;-86
2023/01/31 09:03:31;;;;;;;21.33;7.80;;;;;;;4.64;100.00;100572.34;5004973;28;20494;-86
2023/01/31 09:05:58;;;;;;;26.67;8.93;;;;;;;4.51;100.00;100579.34;4999924;28;20519;-86
2023/01/31 09:08:25;;;;;;;20.43;8.17;;;;;;;4.79;100.00;100569.69;5004778;28;20526;-87
2023/01/31 09:10:52;;;;;;;21.80;9.60;;;;;;;4.53;100.00;100556.25;5004205;28;20476;-86
2023/01/31 09:13:19;;;;;;;18.53;9.73;;;;;;;4.51;100.00;100571.38;5003409;28;20802;-85
2023/01/31 09:15:47;;;;;;;20.10;8.63;;;;;;;4.45;100.00;100558.53;5003635;28;20484;-85
2023/01/31 09:18:14;;;;;;;14.07;7.63;;;;;;;4.28;100.00;100552.47;5003854;28;21063;-85
2023/01/31 09:20:40;;;;;;;21.90;9.80;;;;;;;4.17;100.00;100544.34;5003709;28;20982;-85
2023/01/31 09:23:07;;;;;;;26.07;10.17;;;;;;;4.25;100.00;100555.31;5004231;28;20444;-87
2023/01/31 09:25:34;;;;;;;20.93;8.77;;;;;;;4.11;100.00;100537.63;5003955;28;20992;-87
2023/01/31 09:28:01;;;;;;;15.00;8.60;;;;;;;4.11;100.00;100542.91;5003898;28;21016;-85
2023/01/31 09:30:28;;;;;;;24.83;8.80;;;;;;;4.20;100.00;100549.44;5003070;28;20480;-85
2023/01/31 09:32:56;;;;;;;21.03;10.20;;;;;;;4.05;100.00;100537.97;5004167;28;20460;-85
2023/01/31 09:35:23;;;;;;;18.43;9.13;;;;;;;4.20;100.00;100532.69;5002803;28;20440;-86
2023/01/31 09:37:49;;;;;;;18.43;10.00;;;;;;;4.33;100.00;100525.72;5004232;28;20901;-85
2023/01/31 09:40:23;;;;;;;18.43;10.53;;;;;;;4.33;100.00;100539.81;5003585;28;20452;-85
2023/01/31 09:42:51;;;;;;;21.77;9.50;;;;;;;4.15;100.00;100528.53;5003395;28;20497;-85
2023/01/31 09:45:26;;;;;;;16.43;9.63;;;;;;;3.95;100.00;100531.53;5002844;28;20464;-85
2023/01/31 09:47:56;;;;;;;21.83;10.60;;;;;;;4.01;100.00;100531.19;5003773;28;20529;-85
2023/01/31 09:50:28;;;;;;;24.50;11.60;;;;;;;4.20;100.00;100549.44;5001955;28;20459;-85
2023/01/31 09:52:55;;;;;;;20.53;9.60;;;;;;;4.07;100.00;100557.25;5004234;28;20436;-84
2023/01/31 09:55:28;;;;;;;23.53;10.23;;;;;;;4.38;100.00;100546.63;5004017;28;20478;-86
2023/01/31 09:58:00;;;;;;;24.40;10.07;;;;;;;4.16;100.00;100545.25;5003738;28;20917;-86
2023/01/31 10:00:32;;;;;;;23.03;11.43;;;;;;;4.42;100.00;100551.63;5004046;28;20472;-85
2023/01/31 10:03:29;;;;;;;26.97;11.40;;;;;;;4.20;100.00;100556.50;5009977;28;20466;-86
2023/01/31 10:06:00;;;;;;;28.30;12.40;;;;;;;4.23;100.00;100546.59;5012143;28;20510;-86
2023/01/31 10:08:40;;;;;;;24.03;10.60;;;;;;;4.25;100.00;100536.78;5004665;28;20523;-87
2023/01/31 10:11:11;;;;;;;27.13;11.70;;;;;;;4.23;100.00;100537.81;4996695;28;20857;-86
2023/01/31 10:13:41;;;;;;;26.47;12.07;;;;;;;4.33;100.00;100529.22;5003971;28;20527;-85
2023/01/31 10:16:15;;;;;;;24.27;11.73;;;;;;;4.36;100.00;100528.19;5004270;28;20850;-85
2023/01/31 10:18:45;;;;;;;26.20;12.20;;;;;;;4.48;100.00;100508.91;5003979;28;20493;-85
2023/01/31 10:21:15;;;;;;;25.47;13.77;;;;;;;4.22;100.00;100514.94;5003354;28;21137;-86
2023/01/31 10:23:45;;;;;;;22.50;12.60;;;;;;;4.27;100.00;100512.84;5004605;28;20560;-86
2023/01/31 10:26:15;;;;;;;24.00;11.27;;;;;;;4.38;100.00;100518.34;5003741;28;20479;-86
2023/01/31 10:28:48;;;;;;;25.30;11.67;;;;;;;4.47;100.00;100523.06;5004579;28;20484;-86
2023/01/31 10:31:25;;;;;;;22.70;12.27;;;;;;;4.56;100.00;100513.72;5002879;28;20475;-87
2023/01/31 10:33:55;;;;;;;18.90;10.70;;;;;;;4.40;100.00;100515.63;5002837;28;20903;-86
2023/01/31 10:36:26;;;;;;;21.13;11.33;;;;;;;4.51;100.00;100508.72;5003943;28;20488;-85
2023/01/31 10:38:58;;;;;;;23.30;12.40;;;;;;;4.50;100.00;100506.16;5004679;28;20448;-86
2023/01/31 10:41:31;;;;;;;24.57;11.93;;;;;;;4.45;100.00;100498.50;5003033;28;20507;-86
2023/01/31 10:44:01;;;;;;;39.93;13.93;;;;;;;4.45;100.00;100503.78;5004818;28;20436;-86
2023/01/31 10:46:28;;;;;;;23.40;12.30;;;;;;;4.44;100.00;100499.44;5004271;28;20727;-86
2023/01/31 10:48:56;;;;;;;20.80;12.37;;;;;;;4.67;100.00;100491.84;5003285;28;20484;-87
2023/01/31 10:51:39;;;;;;;25.67;11.73;;;;;;;4.62;100.00;100497.44;5003731;28;20471;-87
2023/01/31 10:54:20;;;;;;;21.60;11.97;;;;;;;4.96;100.00;100481.19;5003683;28;20897;-86
2023/01/31 10:56:48;;;;;;;19.43;11.90;;;;;;;4.70;100.00;100478.41;5001457;28;20491;-85
2023/01/31 10:59:19;;;;;;;27.23;12.37;;;;;;;4.92;100.00;100479.72;5002528;28;20524;-85
2023/01/31 11:01:46;;;;;;;20.90;13.60;;;;;;;4.88;100.00;100485.19;5001948;28;20532;-86
2023/01/31 11:04:24;;;;;;;22.10;12.30;;;;;;;4.82;100.00;100466.19;4990667;28;20507;-86
2023/01/31 11:06:51;;;;;;;28.80;14.33;;;;;;;4.84;100.00;100469.59;5002091;28;20535;-86
2023/01/31 11:09:18;;;;;;;24.30;14.10;;;;;;;4.64;100.00;100447.03;5002333;28;20476;-86
2023/01/31 11:11:55;;;;;;;25.17;13.50;;;;;;;4.73;100.00;100459.69;5001180;28;20491;-85
2023/01/31 11:14:22;;;;;;;23.33;13.37;;;;;;;4.73;100.00;100467.63;5002389;28;20475;-86
2023/01/31 11:16:49;;;;;;;22.93;13.90;;;;;;;4.71;100.00;100457.13;5001797;28;20503;-85
2023/01/31 11:19:18;;;;;;;20.90;14.17;;;;;;;4.58;100.00;100445.59;5001028;28;20455;-85
2023/01/31 11:21:50;;;;;;;26.07;14.00;;;;;;;4.60;100.00;100437.56;5001794;28;20472;-86
2023/01/31 11:24:20;;;;;;;29.10;13.63;;;;;;;4.74;100.00;100429.63;5002206;28;20801;-86
2023/01/31 11:26:54;;;;;;;22.83;13.80;;;;;;;4.79;100.00;100416.94;5001308;28;20562;-85
2023/01/31 11:29:25;;;;;;;19.03;12.50;;;;;;;4.65;100.00;100423.13;5002085;28;20546;-85
2023/01/31 11:31:52;;;;;;;18.67;13.27;;;;;;;4.70;100.00;100406.91;5001461;28;20499;-86
2023/01/31 11:34:22;;;;;;;23.10;15.60;;;;;;;4.70;100.00;100428.09;5001336;28;20460;-86
2023/01/31 11:36:50;;;;;;;34.77;14.30;;;;;;;4.71;100.00;100433.28;5001943;28;21070;-85